Tejeda Heliport

ES-0308 · Las Palmas, Canarische Eilanden, Spanje

METAR historie ES-0308 · Tejeda Heliport

Hieronder zie je METAR's van de afgelopen dagen. Kies een jaar om door oudere METAR's te bladeren, vanaf het jaar 2007.

17 juli 2024

Tijd Code Weer Temp. Zicht Plafond Wind METAR/SPECI
12:00
V
25 °C 10 km+ - 030° 030° 25 kt METAR GCLP 171100Z 03025KT 9999 FEW027 25/17 Q1017 NOSIG
11:30
V
25 °C 10 km+ - 020° 020° 23 kt METAR GCLP 171030Z 02023KT 9999 FEW025 25/17 Q1017 NOSIG
11:00
V
25 °C 10 km+ - 020° 020° 23 kt METAR GCLP 171000Z 02023KT 9999 FEW025 25/17 Q1017 NOSIG
10:30
V
24 °C 10 km+ - 020° 020° 23 kt METAR GCLP 170930Z 02023KT 9999 FEW025 24/17 Q1017 NOSIG
10:00
V
23 °C 10 km+ - 010° 010° 22 kt METAR GCLP 170900Z 01022KT 9999 FEW025 23/17 Q1017 NOSIG
09:30
V
23 °C 10 km+ - 010° 010° 22 kt METAR GCLP 170830Z 01022KT 9999 FEW023 23/17 Q1016 NOSIG
09:00
V
22 °C 10 km+ - 010° 010° 19 kt METAR GCLP 170800Z 01019KT 9999 FEW020 22/17 Q1016 NOSIG
08:30
V
22 °C 10 km+ - 010° 010° 19 kt METAR GCLP 170730Z 01019KT 350V050 9999 FEW020 22/17 Q1016 NOSIG
08:00
V
21 °C 10 km+ - 010° 010° 17 kt METAR GCLP 170700Z 01017KT 9999 FEW020 21/17 Q1016 NOSIG
07:30
V
21 °C 10 km+ - 010° 010° 20 kt METAR GCLP 170630Z 01020KT 9999 FEW022 21/17 Q1016 NOSIG
07:00
V
21 °C 10 km+ - 010° 010° 21 kt METAR GCLP 170600Z 01021KT 9999 FEW025 21/16 Q1015 NOSIG
06:30
V
21 °C 10 km+ - 010° 010° 21 kt METAR GCLP 170530Z 01021KT 9999 FEW025 21/16 Q1015 NOSIG
06:00
V
21 °C 10 km+ - 010° 010° 23 kt METAR GCLP 170500Z 01023KT 9999 FEW025 21/16 Q1015 NOSIG
05:30
V
21 °C 10 km+ - 010° 010° 22 kt METAR GCLP 170430Z 01022KT 9999 FEW025 21/17 Q1015 NOSIG
05:00
V
21 °C 10 km+ - 010° 010° 20 kt METAR GCLP 170400Z 01020KT 9999 FEW025 21/17 Q1015 NOSIG
04:30
V
21 °C 10 km+ - 010° 010° 23 kt METAR GCLP 170330Z 01023KT 9999 FEW025 21/17 Q1015 NOSIG
04:00
V
21 °C 10 km+ - 010° 010° 22 - 33 kt METAR GCLP 170300Z 01022G33KT 9999 FEW025 21/17 Q1014 NOSIG
03:30
V
21 °C 10 km+ - 010° 010° 25 kt METAR GCLP 170230Z 01025KT 9999 FEW025 21/17 Q1015 NOSIG
03:00
V
21 °C 10 km+ - 020° 020° 25 kt METAR GCLP 170200Z 02025KT 9999 FEW025 21/17 Q1015 NOSIG
02:30
V
21 °C 10 km+ - 010° 010° 20 kt METAR GCLP 170130Z 01020KT 9999 FEW020 21/17 Q1015 NOSIG
02:00
V
21 °C 10 km+ - 010° 010° 17 kt METAR GCLP 170100Z 01017KT 9999 FEW020 21/17 Q1016 NOSIG
01:30
V
21 °C 10 km+ - 010° 010° 19 kt METAR GCLP 170030Z 01019KT 9999 FEW020 21/17 Q1016 NOSIG
01:00
V
21 °C 10 km+ - 010° 010° 21 kt METAR GCLP 170000Z 01021KT 9999 FEW020 21/17 Q1016 NOSIG
00:30
V
21 °C 10 km+ - 010° 010° 24 kt METAR GCLP 162330Z 01024KT 9999 FEW020 21/17 Q1016 NOSIG
00:00
V
22 °C 10 km+ - 020° 020° 23 kt METAR GCLP 162300Z 02023KT 9999 FEW020 22/17 Q1016 NOSIG

16 juli 2024

Tijd Code Weer Temp. Zicht Plafond Wind METAR/SPECI
23:30
V
22 °C 10 km+ - 020° 020° 24 kt METAR GCLP 162230Z 02024KT 9999 FEW020 22/17 Q1016 NOSIG
23:00
V
22 °C 10 km+ - 020° 020° 25 kt METAR GCLP 162200Z 02025KT 9999 FEW020 22/18 Q1016 NOSIG
22:30
V
22 °C 10 km+ - 020° 020° 23 kt METAR GCLP 162130Z 02023KT 9999 FEW020 22/18 Q1016 NOSIG
22:00
V
22 °C 10 km+ - 020° 020° 24 kt METAR GCLP 162100Z 02024KT 9999 FEW020 22/18 Q1016 NOSIG
21:30
V
22 °C 10 km+ - 020° 020° 22 kt METAR GCLP 162030Z 02022KT 9999 FEW020 22/18 Q1015 NOSIG
21:00
V
23 °C 10 km+ - 020° 020° 23 kt METAR GCLP 162000Z 02023KT 9999 FEW020 23/18 Q1015 NOSIG
20:30
V
23 °C 10 km+ - 020° 020° 25 kt METAR GCLP 161930Z 02025KT 9999 FEW020 23/18 Q1015 NOSIG
20:00
V
24 °C 10 km+ - 020° 020° 27 kt METAR GCLP 161900Z 02027KT 9999 FEW020 24/18 Q1015 NOSIG
19:30
V
25 °C 10 km+ - 020° 020° 27 kt METAR GCLP 161830Z 02027KT 9999 FEW020 25/18 Q1015 NOSIG
19:00
V
25 °C 10 km+ - 020° 020° 26 kt METAR GCLP 161800Z 02026KT 9999 FEW020 25/18 Q1015 NOSIG
18:30
V
26 °C 10 km+ - 020° 020° 26 kt METAR GCLP 161730Z 02026KT 9999 FEW020 26/18 Q1015 NOSIG
18:00
V
26 °C 10 km+ - 020° 020° 26 kt METAR GCLP 161700Z 02026KT 9999 FEW020 26/18 Q1015 NOSIG
17:30
V
26 °C 10 km+ - 020° 020° 27 kt METAR GCLP 161630Z 02027KT 350V050 9999 FEW020 26/18 Q1015 NOSIG
17:00
V
26 °C 10 km+ - 020° 020° 27 kt METAR GCLP 161600Z 02027KT 9999 FEW020 26/19 Q1016 NOSIG
16:30
V
25 °C 10 km+ - 030° 030° 29 kt METAR GCLP 161530Z 03029KT 9999 FEW020 25/19 Q1016 NOSIG
16:00
V
25 °C 10 km+ - 030° 030° 28 kt METAR GCLP 161500Z 03028KT 9999 FEW020 25/19 Q1016 NOSIG
15:30
V
26 °C 10 km+ - 030° 030° 29 kt METAR GCLP 161430Z 03029KT 9999 FEW020 26/20 Q1016 NOSIG
15:00
V
26 °C 10 km+ - 030° 030° 29 kt METAR GCLP 161400Z 03029KT 9999 FEW020 26/20 Q1016 NOSIG
14:30
V
26 °C 10 km+ - 030° 030° 29 kt METAR GCLP 161330Z 03029KT 9999 FEW020 26/20 Q1016 NOSIG
14:00
V
27 °C 10 km+ - 030° 030° 27 kt METAR GCLP 161300Z 03027KT 9999 FEW020 27/19 Q1017 NOSIG
13:30
V
27 °C 10 km+ - 020° 020° 25 kt METAR GCLP 161230Z 02025KT 9999 FEW020 27/19 Q1017 NOSIG
13:00
V
27 °C 10 km+ - 010° 010° 24 kt METAR GCLP 161200Z 01024KT 9999 FEW020 27/19 Q1017 NOSIG
12:30
V
27 °C 10 km+ - 010° 010° 25 kt METAR GCLP 161130Z 01025KT 350V050 9999 FEW015 27/20 Q1017 NOSIG
12:00
V
26 °C 10 km+ - 030° 030° 29 kt METAR GCLP 161100Z 03029KT 9999 FEW015 26/20 Q1017 NOSIG
11:30
V
26 °C 10 km+ - 020° 020° 24 kt METAR GCLP 161030Z 02024KT 9999 FEW013 26/21 Q1017 NOSIG
11:00
V
25 °C 10 km+ - 030° 030° 25 kt METAR GCLP 161000Z 03025KT 9999 FEW010 25/20 Q1017 NOSIG
10:30
V
24 °C 10 km+ - 030° 030° 24 kt METAR GCLP 160930Z 03024KT 9999 FEW010 24/20 Q1017 NOSIG
10:00
V
24 °C 10 km+ - 020° 020° 21 kt METAR GCLP 160900Z 02021KT 9999 FEW005 SCT010 24/20 Q1017 NOSIG
09:30
V
23 °C 10 km+ - 020° 020° 21 kt METAR GCLP 160830Z 02021KT 9999 FEW005 SCT010 23/20 Q1017 NOSIG
09:00
V
22 °C 10 km+ - 030° 030° 21 kt METAR GCLP 160800Z 03021KT 9999 FEW005 SCT015 22/20 Q1017 NOSIG
08:30
V
22 °C 10 km+ - 020° 020° 21 kt METAR GCLP 160730Z 02021KT 9999 SCT011 22/20 Q1017 NOSIG
08:00
V
22 °C 10 km+ - 010° 010° 21 kt METAR GCLP 160700Z 01021KT 9999 SCT013 22/19 Q1017 NOSIG
07:30
V
22 °C 10 km+ - 020° 020° 22 kt METAR GCLP 160630Z 02022KT 9999 SCT013 22/20 Q1016 NOSIG
07:00
V
22 °C 10 km+ - 010° 010° 21 kt METAR GCLP 160600Z 01021KT 9999 SCT012 22/20 Q1017 NOSIG
06:30
V
22 °C 10 km+ - 020° 020° 20 kt METAR GCLP 160530Z 02020KT 9999 FEW015 22/20 Q1017 NOSIG
06:00
V
22 °C 10 km+ - 010° 010° 21 kt METAR GCLP 160500Z 01021KT 9999 FEW015 22/19 Q1016 NOSIG
05:30
V
22 °C 10 km+ - 010° 010° 22 kt METAR GCLP 160430Z 01022KT 9999 FEW018 22/19 Q1016 NOSIG
05:00
V
22 °C 10 km+ - 010° 010° 20 kt METAR GCLP 160400Z 01020KT 9999 FEW018 22/19 Q1016 NOSIG
04:30
V
23 °C 10 km+ - 020° 020° 24 kt METAR GCLP 160330Z 02024KT 9999 FEW018 23/19 Q1016 NOSIG
04:00
V
23 °C 10 km+ - 020° 020° 22 kt METAR GCLP 160300Z 02022KT 9999 FEW020 23/18 Q1016 NOSIG
03:30
V
24 °C 10 km+ - 010° 010° 19 kt METAR GCLP 160230Z 01019KT CAVOK 24/16 Q1017 NOSIG
03:00
V
24 °C 10 km+ - 010° 010° 18 kt METAR GCLP 160200Z 01018KT CAVOK 24/15 Q1017 NOSIG
02:30
V
24 °C 10 km+ - 010° 010° 20 kt METAR GCLP 160130Z 01020KT CAVOK 24/15 Q1017 NOSIG
02:00
V
25 °C 10 km+ - 010° 010° 21 kt METAR GCLP 160100Z 01021KT CAVOK 25/15 Q1017 NOSIG
01:30
V
24 °C 10 km+ - 010° 010° 21 kt METAR GCLP 160030Z 01021KT CAVOK 24/15 Q1017 NOSIG
01:00
V
24 °C 10 km+ - 010° 010° 23 kt METAR GCLP 160000Z 01023KT CAVOK 24/16 Q1018 NOSIG
00:30
V
24 °C 10 km+ - 010° 010° 24 kt METAR GCLP 152330Z 01024KT CAVOK 24/16 Q1018 NOSIG
00:00
V
24 °C 10 km+ - 020° 020° 23 kt METAR GCLP 152300Z 02023KT CAVOK 24/16 Q1018 NOSIG

15 juli 2024

Tijd Code Weer Temp. Zicht Plafond Wind METAR/SPECI
23:30
V
24 °C 10 km+ - 020° 020° 23 kt METAR GCLP 152230Z 02023KT CAVOK 24/16 Q1018 NOSIG
23:00
V
25 °C 10 km+ - 010° 010° 23 kt METAR GCLP 152200Z 01023KT CAVOK 25/16 Q1018 NOSIG
22:30
V
25 °C 10 km+ - 010° 010° 23 kt METAR GCLP 152130Z 01023KT CAVOK 25/16 Q1018 NOSIG
22:00
V
25 °C 10 km+ - 020° 020° 21 kt METAR GCLP 152100Z 02021KT CAVOK 25/15 Q1018 NOSIG
21:30
V
25 °C 10 km+ - 020° 020° 21 kt METAR GCLP 152030Z 02021KT CAVOK 25/14 Q1017 NOSIG
21:00
V
26 °C 10 km+ - 010° 010° 19 kt METAR GCLP 152000Z 01019KT CAVOK 26/14 Q1017 NOSIG
20:30
V
26 °C 10 km+ - 010° 010° 19 kt METAR GCLP 151930Z 01019KT CAVOK 26/14 Q1017 NOSIG
20:00
V
27 °C 10 km+ - 010° 010° 21 kt METAR GCLP 151900Z 01021KT CAVOK 27/13 Q1017 NOSIG
19:30
V
27 °C 10 km+ - 010° 010° 21 kt METAR GCLP 151830Z 01021KT CAVOK 27/13 Q1016 NOSIG
19:00
V
28 °C 10 km+ - 020° 020° 24 kt METAR GCLP 151800Z 02024KT CAVOK 28/13 Q1016 NOSIG
18:30
V
28 °C 10 km+ - 020° 020° 24 kt METAR GCLP 151730Z 02024KT CAVOK 28/14 Q1016 NOSIG
18:00
V
28 °C 10 km+ - 020° 020° 24 kt METAR GCLP 151700Z 02024KT CAVOK 28/14 Q1016 NOSIG
17:30
V
30 °C 10 km+ - 020° 020° 23 kt METAR GCLP 151630Z 02023KT CAVOK 30/14 Q1016 NOSIG
17:00
V
29 °C 10 km+ - 020° 020° 24 kt METAR GCLP 151600Z 02024KT CAVOK 29/14 Q1016 NOSIG
16:30
V
29 °C 10 km+ - 010° 010° 24 kt METAR GCLP 151530Z 01024KT CAVOK 29/15 Q1016 NOSIG
16:00
V
29 °C 10 km+ - 020° 020° 25 kt METAR GCLP 151500Z 02025KT CAVOK 29/15 Q1016 NOSIG
15:30
V
29 °C 10 km+ - 020° 020° 25 kt METAR GCLP 151430Z 02025KT CAVOK 29/15 Q1016 NOSIG
15:00
V
29 °C 10 km+ - 020° 020° 24 kt METAR GCLP 151400Z 02024KT CAVOK 29/15 Q1017 NOSIG
14:30
V
29 °C 10 km+ - 020° 020° 24 kt METAR GCLP 151330Z 02024KT CAVOK 29/16 Q1017 NOSIG
14:00
V
29 °C 10 km+ - 020° 020° 25 kt METAR GCLP 151300Z 02025KT CAVOK 29/15 Q1017 NOSIG
13:30
V
29 °C 10 km+ - 020° 020° 25 kt METAR GCLP 151230Z 02025KT CAVOK 29/14 Q1017 NOSIG
13:00
V
29 °C 10 km+ - 020° 020° 24 kt METAR GCLP 151200Z 02024KT CAVOK 29/15 Q1017 NOSIG
12:30
V
28 °C 10 km+ - 020° 020° 23 kt METAR GCLP 151130Z 02023KT CAVOK 28/15 Q1017 NOSIG
12:00
V
28 °C 10 km+ - 010° 010° 25 kt METAR GCLP 151100Z 01025KT CAVOK 28/15 Q1017 NOSIG
11:30
V
28 °C 10 km+ - 020° 020° 23 kt METAR GCLP 151030Z 02023KT 9999 FEW020 28/14 Q1017 NOSIG
11:00
V
28 °C 10 km+ - 010° 010° 22 kt METAR GCLP 151000Z 01022KT CAVOK 28/14 Q1017 NOSIG
10:30
V
27 °C 10 km+ - 010° 010° 21 kt METAR GCLP 150930Z 01021KT 9999 FEW020 27/15 Q1017 NOSIG
10:00
V
26 °C 10 km+ - 010° 010° 21 kt METAR GCLP 150900Z 01021KT 9999 FEW020 26/16 Q1017 NOSIG
09:30
V
25 °C 10 km+ - 010° 010° 20 kt METAR GCLP 150830Z 01020KT 9999 FEW020 25/17 Q1017 NOSIG
09:00
V
23 °C 10 km+ - 020° 020° 21 kt METAR GCLP 150800Z 02021KT 9999 FEW020 23/18 Q1017 NOSIG
08:30
V
22 °C 10 km+ - 020° 020° 19 kt METAR GCLP 150730Z 02019KT 9999 FEW020 22/18 Q1017 NOSIG
08:00
V
22 °C 10 km+ - 020° 020° 18 kt METAR GCLP 150700Z 02018KT 9999 FEW020 22/16 Q1016 NOSIG
07:30
V
21 °C 10 km+ - 020° 020° 19 kt METAR GCLP 150630Z 02019KT 9999 FEW020 21/17 Q1016 NOSIG
07:00
V
21 °C 10 km+ - 020° 020° 18 kt METAR GCLP 150600Z 02018KT 9999 FEW020 21/17 Q1016 NOSIG
Wijziging doorgeven